LSGG/GVA METAR and TAF weather

Enter ICAO airport designator
Station Type Date Time Source
LSGG METAR 2022/01/25 05:20 UTC NOAA

LSGG 250520Z VRB02KT 4000 BR OVC003 M00/M01 Q1033 NOSIG


Station Type Date Time Source
LSGG Decoded METAR 2022/01/25 05:20 UTC NOAA

Geneve-Cointrin, Switzerland (LSGG) 46-15N 006-08E 416M
Jan 25, 2022 - 12:20 AM EST / 2022.01.25 0520 UTC
Wind: Variable at 2 MPH (2 KT):0
Visibility: 2 mile(s):0
Sky conditions: overcast
Weather: mist
Temperature: 32 F (0 C)
Dew Point: 30 F (-1 C)
Relative Humidity: 92%
Pressure (altimeter): 30.50 in. Hg (1033 hPa)
ob: LSGG 250520Z VRB02KT 4000 BR OVC003 M00/M01 Q1033 NOSIG
cycle: 5

Station Type Date Time Source
LSGG TAF 2022/01/25 06:33 UTC NOAA

TAF TAF LSGG 250525Z 2506/2612 VRB02KT 3500 BR OVC005 TX05/2515Z TNM03/2506Z TNM03/2606Z
TEMPO 2506/2508 2500 BR OVC003
BECMG 2510/2513 8000 BR SCT010 PROB40 2514/2520 CAVOK
BECMG 2522/2524 3500 BR BKN007 PROB30
TEMPO 2603/2608 0800 FZFG VV002
BECMG 2610/2612 5000 BR SCT010

Example: see airport list